South Grafton, Massachusetts
Current Conditions -  °F | °C
As of 10:54 AM on Thursday 23 Oct 2014 (Local Time) from KORH Reporting Station
Overcast Overcast  
Wind Chill: 41°   Ceiling: 700
Heat Index: 48°   Visibility: 10mi
Dew Point: 45°   Wind: 20mph
Humidity: 89%   Direction: 30°NNE
Pressure: 29.66"   Gusts: 32mph
Location:  42.18°N, 71.75°W
Report Text: KORH 231454Z 03017G28KT 10SM OVC007 09/07 A2966 RMK AO2 PK WND 02035/1401 RAE43 CIG 005V011 SLP050 P0009 60021 T00890072 55015
Loading
Personal Weather Stations






























Interactive Weather Map
Tropical Storm Tracking
New forecast layout! Learn more

10-Day Weather Forecast

Advertisements
Track Severe Weather on mobile